Time;durP1;ratioP1;P1;durP2;ratioP2;P2;SDS_P1;SDS_P2;PMS_P1;PMS_P2;Temp;Humidity;BMP_temperature;BMP_pressure;BME280_temperature;BME280_humidity;BME280_pressure;Samples;Min_cycle;Max_cycle;Signal;HPM_P1;HPM_P2
2023/01/26 00:01:36;;;;;;;4.18;3.38;;;29.60;99.90;;;;;;5005445;28;20199;-75
2023/01/26 00:04:07;;;;;;;3.88;3.45;;;29.60;99.90;;;;;;5010260;28;20191;-76
2023/01/26 00:06:40;;;;;;;4.78;3.45;;;29.70;99.90;;;;;;5003134;28;20200;-76
2023/01/26 00:09:16;;;;;;;4.65;3.45;;;29.80;99.90;;;;;;5014365;28;20223;-75
2023/01/26 00:11:47;;;;;;;4.25;3.30;;;29.90;99.90;;;;;;5015695;28;20195;-76
2023/01/26 00:14:18;;;;;;;4.07;3.13;;;30.10;99.90;;;;;;5010614;28;20282;-76
2023/01/26 00:16:52;;;;;;;4.68;3.28;;;30.10;99.90;;;;;;5013699;28;20253;-77
2023/01/26 00:19:23;;;;;;;5.65;3.47;;;30.30;99.90;;;;;;5006388;28;20280;-77
2023/01/26 00:21:54;;;;;;;4.05;3.30;;;30.40;99.90;;;;;;5015805;28;20746;-77
2023/01/26 00:24:25;;;;;;;4.60;3.40;;;30.40;99.90;;;;;;5016211;28;20219;-76
2023/01/26 00:26:59;;;;;;;6.28;3.20;;;30.50;99.90;;;;;;5015089;28;20201;-77
2023/01/26 00:29:30;;;;;;;3.58;3.28;;;30.60;99.90;;;;;;5014151;28;20717;-77
2023/01/26 00:32:03;;;;;;;3.88;3.20;;;30.70;99.90;;;;;;5013843;28;20210;-77
2023/01/26 00:34:34;;;;;;;4.35;3.40;;;30.80;99.90;;;;;;5013974;28;20282;-77
2023/01/26 00:37:05;;;;;;;3.50;3.20;;;30.90;99.90;;;;;;5010692;28;20206;-77
2023/01/26 00:39:37;;;;;;;3.53;3.22;;;31.00;99.90;;;;;;5009465;28;20237;-77
2023/01/26 00:42:08;;;;;;;6.28;4.10;;;31.10;99.90;;;;;;5011977;28;20219;-77
2023/01/26 00:44:40;;;;;;;4.45;3.20;;;31.20;99.90;;;;;;5013559;28;20241;-77
2023/01/26 00:47:15;;;;;;;4.35;3.03;;;31.40;99.90;;;;;;5013852;28;20198;-77
2023/01/26 00:49:46;;;;;;;3.65;3.10;;;31.40;99.90;;;;;;5013778;28;20230;-77
2023/01/26 00:52:17;;;;;;;4.20;3.40;;;31.60;99.90;;;;;;5014600;28;20552;-77
2023/01/26 00:54:48;;;;;;;3.33;3.00;;;31.70;99.90;;;;;;5014348;28;20238;-77
2023/01/26 00:57:20;;;;;;;3.60;3.13;;;31.80;99.90;;;;;;5014478;28;20199;-77
2023/01/26 00:59:51;;;;;;;4.70;3.38;;;31.90;99.90;;;;;;5014421;28;20187;-76
2023/01/26 01:02:23;;;;;;;4.30;2.95;;;32.10;99.90;;;;;;5014124;28;20647;-75
2023/01/26 01:04:55;;;;;;;5.50;3.10;;;32.20;99.90;;;;;;5015173;28;20590;-74
2023/01/26 01:07:26;;;;;;;5.03;2.60;;;32.30;99.90;;;;;;5015392;28;20712;-75
2023/01/26 01:09:59;;;;;;;5.00;2.80;;;32.40;99.90;;;;;;5015522;28;20226;-76
2023/01/26 01:12:30;;;;;;;4.18;3.00;;;32.50;99.90;;;;;;5015181;28;20191;-76
2023/01/26 01:15:04;;;;;;;3.40;3.05;;;32.50;99.90;;;;;;5015054;28;20282;-76
2023/01/26 01:17:37;;;;;;;5.90;3.50;;;32.70;99.90;;;;;;5014202;28;20197;-76
2023/01/26 04:42:06;;;;;;;9.70;5.43;;;27.80;99.90;;;;;;5091343;27;20536;-78
2023/01/26 04:44:37;;;;;;;8.18;5.63;;;27.60;99.90;;;;;;5090942;28;20199;-77
2023/01/26 04:47:08;;;;;;;8.02;5.13;;;27.50;99.90;;;;;;5091188;28;20209;-77
2023/01/26 04:49:39;;;;;;;9.10;5.47;;;27.40;99.90;;;;;;5090829;28;20210;-77
2023/01/26 04:52:10;;;;;;;9.15;5.55;;;27.40;99.90;;;;;;5090830;28;20194;-77
2023/01/26 04:54:41;;;;;;;9.13;5.60;;;27.40;99.90;;;;;;5090585;28;20198;-77
2023/01/26 04:57:14;;;;;;;8.10;5.32;;;27.30;99.90;;;;;;5090652;28;20192;-77
2023/01/26 04:59:45;;;;;;;9.55;5.50;;;27.30;99.90;;;;;;5090460;28;20193;-77
2023/01/26 05:02:16;;;;;;;12.02;5.63;;;27.30;99.90;;;;;;5090592;28;20579;-78
2023/01/26 05:04:47;;;;;;;10.98;5.32;;;27.20;99.90;;;;;;5090480;28;20188;-79
2023/01/26 05:07:18;;;;;;;8.77;5.88;;;27.20;99.90;;;;;;5090595;28;20198;-77
2023/01/26 05:09:49;;;;;;;8.68;5.57;;;27.40;99.90;;;;;;5090325;28;20189;-78
2023/01/26 05:12:37;;;;;;;8.75;5.65;;;27.30;99.90;;;;;;5090456;28;20336;-77
2023/01/26 05:15:11;;;;;;;8.32;5.40;;;27.50;99.90;;;;;;5090518;28;20188;-76
2023/01/26 05:17:42;;;;;;;10.30;5.78;;;27.60;99.90;;;;;;5090308;28;20199;-77
2023/01/26 05:20:14;;;;;;;8.82;5.30;;;27.70;99.90;;;;;;5090223;28;20544;-77
2023/01/26 05:22:45;;;;;;;10.90;5.50;;;27.80;99.90;;;;;;5090114;28;20222;-77
2023/01/26 05:25:16;;;;;;;7.30;5.15;;;27.90;99.90;;;;;;5090031;28;20194;-77
2023/01/26 05:27:49;;;;;;;9.00;5.28;;;27.90;99.90;;;;;;5090157;28;20192;-77
2023/01/26 05:30:21;;;;;;;7.50;5.22;;;28.00;99.90;;;;;;5090095;28;20193;-77
2023/01/26 05:32:52;;;;;;;8.77;5.22;;;28.10;99.90;;;;;;5089774;28;20672;-77
2023/01/26 05:35:26;;;;;;;9.05;4.95;;;28.20;99.90;;;;;;5089998;28;20191;-76
2023/01/26 05:37:57;;;;;;;9.70;5.00;;;28.20;99.90;;;;;;5089846;28;20188;-77
2023/01/26 05:40:32;;;;;;;8.07;5.28;;;28.30;99.90;;;;;;5089571;28;20732;-77
2023/01/26 05:43:05;;;;;;;11.10;5.28;;;28.30;99.90;;;;;;5089902;28;20275;-77
2023/01/26 05:45:39;;;;;;;7.55;5.13;;;28.30;99.90;;;;;;5089811;28;20192;-77
2023/01/26 05:48:10;;;;;;;8.20;4.78;;;28.30;99.90;;;;;;5089786;28;20189;-77
2023/01/26 05:50:41;;;;;;;9.75;5.43;;;28.40;99.90;;;;;;5089710;28;20200;-77
2023/01/26 05:53:12;;;;;;;8.85;5.20;;;28.50;99.90;;;;;;5076857;28;20285;-77
2023/01/26 05:55:43;;;;;;;7.47;5.40;;;28.50;99.90;;;;;;5076185;28;20195;-77
2023/01/26 05:58:16;;;;;;;7.18;4.68;;;28.60;99.90;;;;;;5076049;28;20189;-77
2023/01/26 06:00:47;;;;;;;7.95;4.93;;;28.70;99.90;;;;;;5075985;28;20299;-77
2023/01/26 06:03:18;;;;;;;6.45;5.18;;;28.70;99.90;;;;;;5075694;28;20570;-77
2023/01/26 06:05:55;;;;;;;8.60;5.20;;;28.70;99.90;;;;;;5076033;28;20197;-77
2023/01/26 06:08:29;;;;;;;6.97;4.97;;;28.70;99.90;;;;;;5075744;28;20546;-77
2023/01/26 06:11:04;;;;;;;10.50;5.30;;;28.70;99.90;;;;;;5075824;28;20199;-77
2023/01/26 06:13:40;;;;;;;8.35;5.57;;;28.70;99.90;;;;;;5075718;28;20192;-77
2023/01/26 06:16:11;;;;;;;10.20;6.22;;;28.70;99.90;;;;;;5075753;28;20663;-78
2023/01/26 06:18:42;;;;;;;11.35;6.28;;;28.60;99.90;;;;;;5075710;28;20276;-77
2023/01/26 06:21:13;;;;;;;11.32;6.05;;;28.60;99.90;;;;;;5075777;28;20231;-77
2023/01/26 06:23:44;;;;;;;12.23;6.93;;;28.50;99.90;;;;;;5075503;28;20316;-78
2023/01/26 06:26:15;;;;;;;9.32;6.20;;;28.50;99.90;;;;;;5075853;28;20268;-77
2023/01/26 06:28:48;;;;;;;9.82;6.20;;;28.50;99.90;;;;;;5075497;28;20189;-78
2023/01/26 06:31:19;;;;;;;10.88;6.85;;;28.50;99.90;;;;;;5075465;28;20189;-77
2023/01/26 06:33:50;;;;;;;11.80;7.63;;;28.60;99.90;;;;;;5067782;28;20744;-78
2023/01/26 06:36:21;;;;;;;10.88;7.40;;;28.50;99.90;;;;;;5053896;28;20930;-77
2023/01/26 06:38:53;;;;;;;11.18;7.68;;;28.40;99.90;;;;;;5055147;28;20220;-77
2023/01/26 06:41:24;;;;;;;11.73;8.15;;;28.40;99.90;;;;;;5064977;28;20244;-77
2023/01/26 06:43:57;;;;;;;12.27;8.30;;;28.30;99.90;;;;;;5058068;28;20232;-77
2023/01/26 06:46:28;;;;;;;11.98;7.35;;;28.30;99.90;;;;;;5058553;28;20684;-77
2023/01/26 06:48:58;;;;;;;12.50;7.90;;;28.20;99.90;;;;;;5059960;28;20292;-78
2023/01/26 06:51:56;;;;;;;13.30;8.02;;;28.10;99.90;;;;;;5054830;28;20198;-78
2023/01/26 06:54:27;;;;;;;12.68;9.05;;;28.10;99.90;;;;;;5055633;28;20569;-77
2023/01/26 06:56:58;;;;;;;12.55;9.48;;;28.00;99.90;;;;;;5059600;28;20280;-76
2023/01/26 06:59:31;;;;;;;13.30;9.23;;;27.90;99.90;;;;;;5052865;28;20201;-76
2023/01/26 07:02:02;;;;;;;14.60;9.63;;;27.80;99.90;;;;;;5064571;28;20221;-77
2023/01/26 07:04:33;;;;;;;14.90;9.48;;;27.70;99.90;;;;;;5060579;28;20214;-77
2023/01/26 07:07:03;;;;;;;13.77;8.93;;;27.50;99.90;;;;;;5057649;28;20633;-76
2023/01/26 07:09:34;;;;;;;11.57;7.68;;;27.40;99.90;;;;;;5058700;28;21569;-77
2023/01/26 07:12:05;;;;;;;9.90;7.30;;;27.30;99.90;;;;;;5062523;28;20192;-77
2023/01/26 07:14:38;;;;;;;14.70;7.28;;;27.20;99.90;;;;;;5055670;28;20197;-77
2023/01/26 07:17:09;;;;;;;8.68;6.78;;;27.20;99.90;;;;;;5052381;28;20565;-77
2023/01/26 07:19:40;;;;;;;10.57;6.53;;;27.00;99.90;;;;;;5063725;28;20208;-77
2023/01/26 07:22:11;;;;;;;14.07;6.68;;;27.00;99.90;;;;;;5068825;28;20237;-77
2023/01/26 07:24:42;;;;;;;14.70;6.30;;;26.90;99.90;;;;;;5066700;28;20250;-77
2023/01/26 07:27:13;;;;;;;7.70;5.43;;;26.90;99.90;;;;;;5061400;28;20205;-77
2023/01/26 07:29:46;;;;;;;8.68;5.82;;;26.80;99.90;;;;;;5059462;28;20194;-77
2023/01/26 07:32:17;;;;;;;7.68;5.10;;;26.80;99.90;;;;;;5055289;28;20221;-77
2023/01/26 07:34:48;;;;;;;11.10;6.43;;;26.80;99.90;;;;;;5056615;28;20204;-77
2023/01/26 07:37:19;;;;;;;10.40;6.28;;;26.80;99.90;;;;;;5058045;28;20189;-78
2023/01/26 07:39:50;;;;;;;9.82;5.72;;;26.80;99.90;;;;;;5057397;28;20226;-77
2023/01/26 07:42:21;;;;;;;10.02;5.45;;;26.80;99.90;;;;;;5057736;28;20307;-78
2023/01/26 07:44:54;;;;;;;7.00;5.22;;;26.90;99.90;;;;;;5060108;28;20206;-78
2023/01/26 07:47:25;;;;;;;8.52;5.97;;;26.90;99.90;;;;;;5057608;28;20570;-77
2023/01/26 07:49:55;;;;;;;7.20;5.18;;;26.90;99.90;;;;;;5056960;28;20224;-78
2023/01/26 07:52:30;;;;;;;7.38;5.25;;;26.90;99.90;;;;;;5067733;28;20190;-77
2023/01/26 07:55:00;;;;;;;8.45;5.22;;;26.90;99.90;;;;;;5059324;28;20736;-77
2023/01/26 07:57:33;;;;;;;11.43;5.00;;;26.90;99.90;;;;;;5056515;28;20198;-77
2023/01/26 08:00:06;;;;;;;8.15;5.05;;;26.80;99.90;;;;;;5057799;28;20197;-76
2023/01/26 08:02:37;;;;;;;6.65;4.55;;;26.80;99.90;;;;;;5064797;28;20304;-76
2023/01/26 08:05:09;;;;;;;6.30;4.40;;;26.80;99.90;;;;;;5069481;28;20219;-76
2023/01/26 08:07:40;;;;;;;8.32;4.18;;;26.70;99.90;;;;;;5073057;28;20600;-76
2023/01/26 08:10:13;;;;;;;7.18;4.40;;;26.70;99.90;;;;;;5061516;28;20193;-76
2023/01/26 08:12:44;;;;;;;4.78;3.88;;;26.60;99.90;;;;;;5068425;28;20205;-76
2023/01/26 08:15:17;;;;;;;9.77;4.80;;;26.60;99.90;;;;;;5059443;28;20284;-76
2023/01/26 08:17:48;;;;;;;7.60;4.20;;;26.60;99.90;;;;;;5063370;28;20247;-76
2023/01/26 08:20:20;;;;;;;6.88;4.43;;;26.50;99.90;;;;;;5055747;28;20566;-76
2023/01/26 08:22:51;;;;;;;8.15;4.60;;;26.50;99.90;;;;;;5058922;28;20224;-77
2023/01/26 08:25:22;;;;;;;9.95;4.65;;;26.50;99.90;;;;;;5065404;28;20212;-77
2023/01/26 08:27:53;;;;;;;7.00;5.05;;;26.50;99.90;;;;;;5052495;28;20224;-77
2023/01/26 08:30:25;;;;;;;7.65;4.63;;;26.50;99.90;;;;;;5065050;28;20283;-77
2023/01/26 08:32:56;;;;;;;8.13;4.47;;;26.50;99.90;;;;;;5070732;28;20327;-77
2023/01/26 08:35:27;;;;;;;6.93;4.28;;;26.50;99.90;;;;;;5062021;28;20200;-78
2023/01/26 08:37:58;;;;;;;9.85;4.30;;;26.50;99.90;;;;;;5067946;28;20203;-77
2023/01/26 08:40:29;;;;;;;8.88;4.85;;;26.50;99.90;;;;;;5058878;28;20238;-77
2023/01/26 08:43:03;;;;;;;8.10;4.90;;;26.50;99.90;;;;;;5063450;28;20307;-78
2023/01/26 08:45:36;;;;;;;8.60;5.13;;;26.40;99.90;;;;;;5064256;28;20200;-77
2023/01/26 08:48:07;;;;;;;8.38;5.18;;;26.40;99.90;;;;;;5069139;28;20197;-78
2023/01/26 08:50:38;;;;;;;9.13;5.25;;;26.40;99.90;;;;;;5060850;28;20719;-78
2023/01/26 08:53:09;;;;;;;10.70;5.78;;;26.40;99.90;;;;;;5060784;28;20219;-77
2023/01/26 08:55:40;;;;;;;11.20;6.25;;;26.30;99.90;;;;;;5052927;28;20220;-78
2023/01/26 08:58:12;;;;;;;9.23;6.38;;;26.20;99.90;;;;;;5059131;28;20192;-77
2023/01/26 09:00:44;;;;;;;12.02;6.70;;;26.10;99.90;;;;;;5054316;28;20276;-78
2023/01/26 09:03:15;;;;;;;10.98;6.63;;;26.00;99.90;;;;;;5057787;28;20303;-79
2023/01/26 09:05:46;;;;;;;13.02;6.05;;;25.80;99.90;;;;;;5056914;28;20194;-78
2023/01/26 09:08:17;;;;;;;11.32;6.47;;;25.70;99.90;;;;;;5060242;28;20194;-77
2023/01/26 09:10:48;;;;;;;10.55;6.35;;;25.60;99.90;;;;;;5054541;28;20201;-79
2023/01/26 09:13:19;;;;;;;11.00;6.47;;;25.50;99.90;;;;;;5070159;28;20197;-78
2023/01/26 09:15:53;;;;;;;9.93;5.82;;;25.50;99.90;;;;;;5057872;28;20682;-76
2023/01/26 09:18:24;;;;;;;11.95;6.32;;;25.40;99.90;;;;;;5063822;28;20288;-79
2023/01/26 09:20:54;;;;;;;11.35;6.38;;;25.30;99.90;;;;;;5059318;28;20263;-78
2023/01/26 09:23:26;;;;;;;11.05;5.72;;;25.30;99.90;;;;;;5066899;28;20197;-78
2023/01/26 09:25:56;;;;;;;14.38;6.30;;;25.20;99.90;;;;;;5057710;28;20197;-79
2023/01/26 09:28:27;;;;;;;12.70;5.47;;;25.20;99.90;;;;;;5060361;28;20216;-80
2023/01/26 09:31:04;;;;;;;15.77;5.43;;;25.10;99.90;;;;;;5061748;28;20198;-81
2023/01/26 09:33:35;;;;;;;11.82;4.82;;;25.00;99.90;;;;;;5066090;28;20197;-84
2023/01/26 09:36:08;;;;;;;13.25;4.53;;;24.90;99.90;;;;;;5070314;28;20258;-82
2023/01/26 09:38:39;;;;;;;8.80;4.40;;;24.80;99.90;;;;;;5057517;28;20193;-81
2023/01/26 09:41:33;;;;;;;14.57;4.55;;;24.80;99.90;;;;;;5069702;28;20238;-80
2023/01/26 09:44:10;;;;;;;11.48;4.25;;;24.80;99.90;;;;;;5068295;28;20652;-79
2023/01/26 09:46:56;;;;;;;13.30;4.25;;;24.80;99.90;;;;;;5065619;28;20235;-81
2023/01/26 09:49:33;;;;;;;10.43;4.15;;;24.80;99.90;;;;;;5070025;28;20717;-80
2023/01/26 09:52:12;;;;;;;9.65;4.50;;;24.80;99.90;;;;;;5066466;28;20223;-79
2023/01/26 09:54:45;;;;;;;11.52;4.90;;;24.80;99.90;;;;;;5061258;28;20243;-81
2023/01/26 09:57:22;;;;;;;17.20;5.55;;;24.80;99.90;;;;;;5073893;28;20656;-82
2023/01/26 09:59:58;;;;;;;16.20;5.55;;;24.80;99.90;;;;;;5067115;28;20197;-84
2023/01/26 10:02:45;;;;;;;13.60;5.50;;;24.90;99.90;;;;;;5064400;28;20578;-85
2023/01/26 10:05:23;;;;;;;19.73;7.03;;;24.80;99.90;;;;;;5075743;28;20207;-82
2023/01/26 10:07:54;;;;;;;16.52;5.78;;;24.90;99.90;;;;;;5067722;28;20194;-80
2023/01/26 10:10:31;;;;;;;21.33;6.75;;;24.80;99.90;;;;;;5068660;28;20197;-84
2023/01/26 10:13:03;;;;;;;19.33;6.07;;;24.90;99.90;;;;;;5075001;28;20950;-83
2023/01/26 10:15:38;;;;;;;21.17;6.95;;;24.80;99.90;;;;;;5069944;28;20200;-84
2023/01/26 10:18:18;;;;;;;18.67;6.55;;;24.80;99.90;;;;;;5059048;28;20203;-83
2023/01/26 10:20:54;;;;;;;19.60;6.63;;;24.80;99.90;;;;;;5063280;28;20227;-81
2023/01/26 10:23:29;;;;;;;22.63;6.53;;;24.80;99.90;;;;;;5060092;28;20216;-85
2023/01/26 10:26:13;;;;;;;23.05;7.10;;;24.80;99.90;;;;;;5063268;28;20193;-84
2023/01/26 10:28:45;;;;;;;16.88;7.20;;;24.80;99.90;;;;;;5065858;28;20201;-81
2023/01/26 10:31:18;;;;;;;18.73;6.63;;;24.70;99.90;;;;;;5061740;28;20280;-81
2023/01/26 10:33:56;;;;;;;21.75;7.43;;;24.70;99.90;;;;;;5062809;28;20204;-80
2023/01/26 10:36:27;;;;;;;24.20;7.05;;;24.70;99.90;;;;;;5071073;28;20288;-85
2023/01/26 10:39:06;;;;;;;22.65;6.65;;;24.70;99.90;;;;;;5059409;28;20201;-87
2023/01/26 10:41:38;;;;;;;18.65;6.75;;;24.60;99.90;;;;;;5068752;28;20248;-83
2023/01/26 10:44:29;;;;;;;25.27;7.28;;;24.70;99.90;;;;;;5063256;28;20697;-86
2023/01/26 10:47:08;;;;;;;18.08;6.85;;;24.60;99.90;;;;;;5065291;28;20219;-80
2023/01/26 10:49:41;;;;;;;23.00;6.68;;;24.60;99.90;;;;;;5073091;28;20203;-79
2023/01/26 10:52:20;;;;;;;18.67;6.60;;;24.60;99.90;;;;;;5064202;28;20297;-81
2023/01/26 10:54:55;;;;;;;20.38;6.03;;;24.60;99.90;;;;;;5068989;28;20203;-80
2023/01/26 10:57:31;;;;;;;22.05;6.15;;;24.50;99.90;;;;;;5063085;28;20199;-79
2023/01/26 11:00:07;;;;;;;19.50;6.35;;;24.40;99.90;;;;;;5060536;28;20193;-82
2023/01/26 11:02:38;;;;;;;25.02;5.90;;;24.30;99.90;;;;;;5062273;28;20759;-82
2023/01/26 11:05:23;;;;;;;23.05;6.03;;;24.10;99.90;;;;;;5072654;28;20199;-79
2023/01/26 11:07:58;;;;;;;20.10;5.60;;;24.10;99.90;;;;;;5066077;28;20200;-81
2023/01/26 11:10:32;;;;;;;19.45;5.47;;;24.00;99.90;;;;;;5064754;28;20229;-80
2023/01/26 11:13:26;;;;;;;22.98;5.90;;;23.90;99.90;;;;;;5072613;28;20200;-79
2023/01/26 11:16:13;;;;;;;21.73;6.13;;;23.90;99.90;;;;;;5056529;28;20207;-79
2023/01/26 11:18:55;;;;;;;19.67;5.60;;;23.80;99.90;;;;;;5065248;28;20560;-79
2023/01/26 11:21:30;;;;;;;25.05;6.35;;;23.70;99.90;;;;;;5058165;28;20313;-79
2023/01/26 11:24:06;;;;;;;20.90;6.47;;;23.70;99.90;;;;;;5059272;28;20219;-79
2023/01/26 11:27:07;;;;;;;23.02;5.85;;;23.60;99.90;;;;;;5068394;28;20227;-81
2023/01/26 11:29:56;;;;;;;20.33;5.57;;;23.60;99.90;;;;;;5064318;28;20200;-81
2023/01/26 11:32:32;;;;;;;25.55;5.75;;;23.60;99.90;;;;;;5060430;28;20285;-80
2023/01/26 11:35:17;;;;;;;29.58;6.22;;;23.60;99.90;;;;;;5059176;28;20203;-79
2023/01/26 11:37:56;;;;;;;25.38;6.35;;;23.50;99.90;;;;;;5056129;28;20204;-79
2023/01/26 11:40:42;;;;;;;20.88;6.25;;;23.50;99.90;;;;;;5071687;28;20227;-79
2023/01/26 11:43:51;;;;;;;24.85;5.70;;;23.50;99.90;;;;;;5066558;28;20259;-79
2023/01/26 11:46:43;;;;;;;25.35;5.63;;;23.40;99.90;;;;;;5059626;28;20769;-79
2023/01/26 11:49:30;;;;;;;23.85;5.40;;;23.50;99.90;;;;;;5060925;28;20200;-80
2023/01/26 11:52:11;;;;;;;27.73;5.75;;;23.40;99.90;;;;;;5054983;28;20203;-81
2023/01/26 11:55:12;;;;;;;23.45;5.25;;;23.30;99.90;;;;;;5069689;28;20724;-80
2023/01/26 11:57:52;;;;;;;18.50;4.85;;;23.30;99.90;;;;;;5062491;28;20201;-79
2023/01/26 12:00:27;;;;;;;23.90;4.93;;;23.30;99.90;;;;;;5070224;28;20196;-79
2023/01/26 12:03:04;;;;;;;23.02;4.95;;;23.30;99.90;;;;;;5058278;28;20341;-79
2023/01/26 12:05:47;;;;;;;25.13;5.35;;;23.30;99.90;;;;;;5054576;28;20274;-78
2023/01/26 12:08:23;;;;;;;23.23;5.32;;;23.30;99.90;;;;;;5060040;28;20236;-79
2023/01/26 12:11:21;;;;;;;22.23;5.32;;;23.30;99.90;;;;;;5060314;28;21578;-79
2023/01/26 12:14:04;;;;;;;24.92;5.50;;;23.20;99.90;;;;;;5059638;28;20724;-79
2023/01/26 12:16:42;;;;;;;21.52;5.45;;;23.20;99.90;;;;;;5069126;28;20673;-79
2023/01/26 12:19:22;;;;;;;23.08;5.38;;;23.20;99.90;;;;;;5066945;28;20219;-80
2023/01/26 12:21:55;;;;;;;21.45;5.25;;;23.20;99.90;;;;;;5057020;28;20194;-80
2023/01/26 12:24:34;;;;;;;26.30;4.93;;;23.20;99.90;;;;;;5057352;28;20291;-80
2023/01/26 12:27:12;;;;;;;18.02;4.65;;;23.20;99.90;;;;;;5064164;28;20205;-79
2023/01/26 12:29:49;;;;;;;20.65;4.45;;;23.10;99.90;;;;;;5059764;28;20202;-79
2023/01/26 12:32:21;;;;;;;26.33;5.80;;;23.10;99.90;;;;;;5060191;28;20284;-79
2023/01/26 12:34:52;;;;;;;19.73;5.00;;;23.10;99.90;;;;;;5054775;28;20199;-78
2023/01/26 12:37:48;;;;;;;22.13;4.97;;;23.10;99.90;;;;;;5056843;28;20283;-79
2023/01/26 12:40:30;;;;;;;23.33;4.90;;;23.10;99.90;;;;;;5067666;28;20228;-80
2023/01/26 12:43:18;;;;;;;27.17;6.45;;;23.10;99.90;;;;;;5063458;28;20286;-79
2023/01/26 12:45:53;;;;;;;14.38;4.45;;;23.10;99.90;;;;;;5060198;28;20201;-79
2023/01/26 12:48:27;;;;;;;19.25;4.40;;;23.10;99.90;;;;;;5065269;28;20277;-79
2023/01/26 12:51:02;;;;;;;20.85;4.80;;;23.10;99.90;;;;;;5055654;28;20723;-79
2023/01/26 12:53:37;;;;;;;20.73;5.28;;;23.10;99.90;;;;;;5065373;28;20254;-79
2023/01/26 12:56:14;;;;;;;16.33;5.00;;;23.10;99.90;;;;;;5055938;28;20719;-79
2023/01/26 12:58:50;;;;;;;18.83;4.53;;;23.10;99.90;;;;;;5055214;28;20294;-81
2023/01/26 13:01:23;;;;;;;19.65;5.05;;;23.10;99.90;;;;;;5059696;28;20193;-79
2023/01/26 13:03:57;;;;;;;18.42;4.38;;;23.10;99.90;;;;;;5059775;28;20308;-79
2023/01/26 13:06:29;;;;;;;15.48;4.57;;;23.10;99.90;;;;;;5060454;28;20192;-79
2023/01/26 13:09:05;;;;;;;21.75;4.95;;;23.10;99.90;;;;;;5064791;28;20219;-78
2023/01/26 13:11:51;;;;;;;17.65;4.25;;;23.10;99.90;;;;;;5068725;28;20197;-79
2023/01/26 13:14:40;;;;;;;21.05;4.57;;;23.00;99.90;;;;;;5056803;28;20268;-78
2023/01/26 13:17:49;;;;;;;18.17;4.38;;;23.10;99.90;;;;;;5073239;28;20662;-79
2023/01/26 13:20:44;;;;;;;15.30;4.35;;;23.00;99.90;;;;;;5075308;28;20236;-78
2023/01/26 13:23:40;;;;;;;19.10;4.63;;;23.10;99.90;;;;;;5066119;28;20219;-80
2023/01/26 13:26:23;;;;;;;13.88;4.75;;;23.00;99.90;;;;;;5058353;28;20212;-78
2023/01/26 13:29:14;;;;;;;16.50;4.28;;;23.00;99.90;;;;;;5069087;28;20203;-79
2023/01/26 13:31:47;;;;;;;17.67;4.13;;;23.00;99.90;;;;;;5069441;28;20197;-79
2023/01/26 13:34:21;;;;;;;17.17;4.45;;;23.00;99.90;;;;;;5075538;28;20193;-78
2023/01/26 13:36:54;;;;;;;26.45;4.93;;;23.00;99.90;;;;;;5056215;28;20221;-79
2023/01/26 13:39:32;;;;;;;17.30;4.45;;;23.10;99.90;;;;;;5064516;28;20311;-79
2023/01/26 13:42:03;;;;;;;20.63;4.30;;;23.10;99.90;;;;;;5065399;28;20571;-79
2023/01/26 13:44:42;;;;;;;13.98;4.05;;;23.10;99.90;;;;;;5069885;28;20213;-79
2023/01/26 13:47:19;;;;;;;16.48;4.32;;;23.10;99.90;;;;;;5055475;28;20282;-80
2023/01/26 13:49:51;;;;;;;20.92;4.20;;;23.10;99.90;;;;;;5060646;28;20207;-79
2023/01/26 13:52:24;;;;;;;16.38;4.60;;;23.10;99.90;;;;;;5053775;28;20247;-79
2023/01/26 13:54:56;;;;;;;17.23;4.30;;;23.10;99.90;;;;;;5058061;28;20204;-81
2023/01/26 13:57:28;;;;;;;14.43;4.95;;;23.10;99.90;;;;;;5070999;28;20189;-78
2023/01/26 14:00:00;;;;;;;15.27;3.88;;;23.10;99.90;;;;;;5056392;28;20284;-79
2023/01/26 14:02:35;;;;;;;15.15;4.47;;;23.10;99.90;;;;;;5063265;28;20528;-80
2023/01/26 14:05:06;;;;;;;17.40;4.10;;;23.10;99.90;;;;;;5062325;28;20208;-79
2023/01/26 14:07:41;;;;;;;14.00;3.90;;;23.10;99.90;;;;;;5062889;28;20193;-80
2023/01/26 14:10:20;;;;;;;17.05;4.40;;;23.10;99.90;;;;;;5054390;28;20275;-79
2023/01/26 14:12:56;;;;;;;16.80;3.88;;;23.10;99.90;;;;;;5063606;28;20200;-80
2023/01/26 14:15:28;;;;;;;19.70;4.45;;;23.10;99.90;;;;;;5065293;28;20201;-79
2023/01/26 14:18:03;;;;;;;12.60;3.80;;;23.20;99.90;;;;;;5071021;28;20210;-79
2023/01/26 14:20:36;;;;;;;14.00;4.05;;;23.20;99.90;;;;;;5055006;28;20739;-79
2023/01/26 14:23:15;;;;;;;12.50;3.63;;;23.20;99.90;;;;;;5053141;28;20224;-79
2023/01/26 14:25:48;;;;;;;14.55;4.05;;;23.20;99.90;;;;;;5061381;28;20652;-79
2023/01/26 14:28:22;;;;;;;17.08;4.28;;;23.20;99.90;;;;;;5054775;28;20285;-79
2023/01/26 14:30:57;;;;;;;13.63;3.80;;;23.20;99.90;;;;;;5058076;28;20197;-80
2023/01/26 14:33:30;;;;;;;15.93;3.92;;;23.20;99.90;;;;;;5058707;28;20193;-80
2023/01/26 14:36:03;;;;;;;9.80;3.65;;;23.20;99.90;;;;;;5061013;28;20198;-79
2023/01/26 14:38:42;;;;;;;17.92;4.15;;;23.20;99.90;;;;;;5062225;28;20197;-80
2023/01/26 14:41:18;;;;;;;15.18;4.18;;;23.20;99.90;;;;;;5062913;28;20286;-80
2023/01/26 14:43:50;;;;;;;17.45;4.10;;;23.10;99.90;;;;;;5074232;28;20325;-79
2023/01/26 14:46:27;;;;;;;14.27;3.85;;;23.20;99.90;;;;;;5064400;28;20277;-78
2023/01/26 14:49:04;;;;;;;16.55;3.88;;;23.10;99.90;;;;;;5054472;28;20196;-79
2023/01/26 14:51:36;;;;;;;13.50;3.50;;;23.20;99.90;;;;;;5054517;28;20197;-79
2023/01/26 14:54:12;;;;;;;12.95;3.55;;;23.10;99.90;;;;;;5066927;28;20212;-78
2023/01/26 14:56:47;;;;;;;12.85;3.60;;;23.10;99.90;;;;;;5054617;28;20224;-80
2023/01/26 14:59:26;;;;;;;10.35;3.35;;;23.10;99.90;;;;;;5059827;28;20205;-79
2023/01/26 15:02:15;;;;;;;8.48;3.30;;;23.10;99.90;;;;;;5053697;28;20229;-78
2023/01/26 15:04:52;;;;;;;13.85;3.70;;;23.10;99.90;;;;;;5059431;28;20226;-79
2023/01/26 15:07:37;;;;;;;15.18;3.60;;;23.10;99.90;;;;;;5061086;28;20203;-79
2023/01/26 15:10:31;;;;;;;12.60;3.40;;;23.10;99.90;;;;;;5055819;28;20220;-78
2023/01/26 15:13:04;;;;;;;17.20;3.63;;;23.10;99.90;;;;;;5065741;28;20210;-79
2023/01/26 15:15:37;;;;;;;12.70;3.60;;;23.10;99.90;;;;;;5069919;28;20265;-78
2023/01/26 15:18:19;;;;;;;11.75;3.63;;;23.10;99.90;;;;;;5063674;28;20663;-80
2023/01/26 15:20:59;;;;;;;12.27;3.42;;;23.10;99.90;;;;;;5070756;28;20197;-80
2023/01/26 15:23:32;;;;;;;16.65;3.47;;;23.10;99.90;;;;;;5054355;28;20217;-79
2023/01/26 15:26:11;;;;;;;7.95;2.88;;;23.10;99.90;;;;;;5053604;28;20193;-80
2023/01/26 15:28:42;;;;;;;13.07;3.70;;;23.10;99.90;;;;;;5054581;28;20194;-78
2023/01/26 15:31:31;;;;;;;11.75;3.22;;;23.10;99.90;;;;;;5054411;28;20255;-80
2023/01/26 15:34:03;;;;;;;12.85;3.75;;;23.00;99.90;;;;;;5054834;28;20193;-78
2023/01/26 15:36:50;;;;;;;15.38;4.07;;;23.10;99.90;;;;;;5060395;28;20220;-79
2023/01/26 15:39:22;;;;;;;13.70;3.30;;;23.10;99.90;;;;;;5068183;28;20284;-79
2023/01/26 15:42:12;;;;;;;11.63;3.50;;;23.10;99.90;;;;;;5060052;28;20324;-80
2023/01/26 15:44:44;;;;;;;11.40;3.30;;;23.00;99.90;;;;;;5056089;28;20228;-81
2023/01/26 15:47:15;;;;;;;10.77;3.38;;;23.00;99.90;;;;;;5053503;28;20202;-80
2023/01/26 15:49:46;;;;;;;12.73;3.38;;;23.10;99.90;;;;;;5055150;28;20751;-80
2023/01/26 15:52:19;;;;;;;10.57;3.20;;;23.00;99.90;;;;;;5056769;28;20208;-79
2023/01/26 15:54:51;;;;;;;10.73;3.22;;;23.00;99.90;;;;;;5061644;28;20201;-81
2023/01/26 15:57:22;;;;;;;9.02;3.10;;;23.00;99.90;;;;;;5064401;28;20205;-81
2023/01/26 15:59:53;;;;;;;11.90;3.42;;;23.00;99.90;;;;;;5071730;28;20204;-80
2023/01/26 16:02:24;;;;;;;11.27;3.15;;;23.00;99.90;;;;;;5066234;28;20216;-78
2023/01/26 16:04:55;;;;;;;14.98;3.50;;;23.00;99.90;;;;;;5052102;28;20217;-80
2023/01/26 16:07:28;;;;;;;15.23;3.58;;;23.00;99.90;;;;;;5053601;28;20368;-80
2023/01/26 16:09:59;;;;;;;9.88;3.17;;;23.00;99.90;;;;;;5064041;28;20737;-81
2023/01/26 16:12:30;;;;;;;14.18;3.88;;;22.90;99.90;;;;;;5054166;28;20196;-79
2023/01/26 16:15:01;;;;;;;10.32;3.25;;;23.00;99.90;;;;;;5052889;28;20197;-80
2023/01/26 16:17:32;;;;;;;15.98;3.70;;;22.90;99.90;;;;;;5052195;28;20217;-79
2023/01/26 16:20:03;;;;;;;10.60;3.15;;;22.90;99.90;;;;;;5060217;28;20197;-79
2023/01/26 16:22:39;;;;;;;8.63;2.72;;;22.90;99.90;;;;;;5052995;28;20201;-80
2023/01/26 16:25:23;;;;;;;13.15;3.30;;;22.80;99.90;;;;;;5061906;28;20304;-78
2023/01/26 16:27:54;;;;;;;10.93;2.97;;;22.80;99.90;;;;;;5053182;28;20193;-81
2023/01/26 16:30:26;;;;;;;8.80;3.08;;;22.80;99.90;;;;;;5057959;28;20308;-80
2023/01/26 16:32:57;;;;;;;11.55;3.10;;;22.70;99.90;;;;;;5061469;28;20211;-79
2023/01/26 16:35:29;;;;;;;13.02;3.20;;;22.70;99.90;;;;;;5052555;28;20197;-80
2023/01/26 16:38:03;;;;;;;12.77;3.20;;;22.70;99.90;;;;;;5052438;28;20193;-79
2023/01/26 16:40:34;;;;;;;10.95;3.17;;;22.60;99.90;;;;;;5063342;28;20229;-81
2023/01/26 16:43:05;;;;;;;10.23;3.20;;;22.60;99.90;;;;;;5061245;28;20242;-81